Millstone, West Virginia
Current Conditions -  °F | °C
As of 6:54 PM on Sunday 23 Nov 2014 (Local Time) from KCRW Reporting Station
Clear Clear  
Wind Chill: 60°   Ceiling: Unl
Heat Index: 60°   Visibility: 10mi
Dew Point: 48°   Wind: 15mph
Humidity: 64%   Direction: 150°SSE
Pressure: 29.65"   Gusts: 25mph
Location:  38.8°N, 81.1°W
Report Text: KCRW 232354Z 15013G22KT 10SM CLR 16/09 A2965 RMK AO2 RAB01E11 SLP041 P0000 60000 T01560089 10172 20133 58049
Loading
Personal Weather Stations






























Interactive Weather Map New forecast layout! Learn more

10-Day Weather Forecast

Advertisements
Track Severe Weather on mobile